Leet, West Virginia
Current Conditions -  °F | °C
As of 2:35 PM on Thursday 18 Dec 2014 (Local Time) from KSJS Reporting Station
Overcast Overcast  
Wind Chill: -1°   Ceiling: 8500
Heat Index:   Visibility: 10mi
Dew Point: -3°   Wind: 5mph
Humidity: 70%   Direction: 340°NNW
Pressure: 30.17"   Gusts: NA
Location:  37.9989°N, 82.1851°W
Report Text: KSJS 181935Z AUTO 34004KT 10SM SCT024 OVC085 02/M03 A3017 RMK AO2 T00151034
Loading
Personal Weather Stations






























Interactive Weather Map New forecast layout! Learn more

10-Day Weather Forecast

Advertisements
Track Severe Weather on mobile